Time;durP1;ratioP1;P1;durP2;ratioP2;P2;SDS_P1;SDS_P2;PMS_P1;PMS_P2;Temp;Humidity;BMP_temperature;BMP_pressure;BME280_temperature;BME280_humidity;BME280_pressure;Samples;Min_cycle;Max_cycle;Signal;HPM_P1;HPM_P2
2022/11/18 00:00:49;;;;;;;5.90;2.90;;;;;;;-143.48;87.75;77742.50;5051164;28;20457;-32
2022/11/18 00:03:15;;;;;;;9.45;3.03;;;;;;;-143.48;88.36;77742.50;5049853;28;20070;-32
2022/11/18 00:05:41;;;;;;;7.55;2.88;;;;;;;-143.48;87.83;77746.44;5051141;28;20056;-32
2022/11/18 00:08:06;;;;;;;8.23;3.25;;;;;;;-143.48;87.85;77742.50;5053372;28;20057;-32
2022/11/18 00:10:31;;;;;;;6.45;2.78;;;;;;;-143.48;88.07;77762.31;5052614;28;20021;-33
2022/11/18 00:15:41;;;;;;;8.38;3.30;;;;;;;-143.48;88.78;77768.25;5051782;28;20724;-33
2022/11/18 00:18:07;;;;;;;8.05;2.85;;;;;;;-143.48;88.51;77768.25;5053270;28;20040;-32
2022/11/18 00:20:33;;;;;;;9.30;2.95;;;;;;;-143.48;88.25;77776.19;5053400;28;20035;-32
2022/11/18 00:22:59;;;;;;;9.32;3.33;;;;;;;-143.48;88.68;77776.19;5053392;28;20471;-32
2022/11/18 00:25:24;;;;;;;6.95;2.72;;;;;;;-143.48;88.12;77774.22;5053084;28;20096;-32
2022/11/18 00:27:50;;;;;;;9.63;3.00;;;;;;;-143.48;88.16;77776.19;5053089;28;20025;-32
2022/11/18 00:30:15;;;;;;;9.80;2.70;;;;;;;-143.48;88.19;77774.22;5053216;28;20021;-32
2022/11/18 00:32:41;;;;;;;9.73;2.80;;;;;;;-143.48;88.26;77786.13;5053253;28;20028;-32
2022/11/18 00:35:06;;;;;;;7.35;3.00;;;;;;;-143.48;88.26;77792.06;5053196;28;20017;-32
2022/11/18 00:37:32;;;;;;;6.32;2.75;;;;;;;-143.48;88.93;77801.97;5053259;28;20074;-32
2022/11/18 00:39:57;;;;;;;6.85;3.10;;;;;;;-143.48;88.58;77798.00;5053515;28;20078;-32
2022/11/18 00:45:07;;;;;;;6.72;3.00;;;;;;;-143.48;89.18;77805.94;5056704;28;20529;-32
2022/11/18 00:47:32;;;;;;;6.25;3.10;;;;;;;-143.48;88.69;77813.88;5057424;28;20028;-32
2022/11/18 00:49:57;;;;;;;8.30;2.90;;;;;;;-143.48;89.16;77809.91;5056922;28;20095;-33
2022/11/18 00:52:23;;;;;;;7.07;3.00;;;;;;;-143.48;88.64;77821.81;5056506;28;20021;-32
2022/11/18 00:54:48;;;;;;;7.47;2.88;;;;;;;-143.48;89.30;77829.75;5056448;28;20029;-32
2022/11/18 00:57:13;;;;;;;8.77;3.10;;;;;;;-143.48;89.23;77829.75;5056803;28;20457;-33
2022/11/18 00:59:39;;;;;;;8.90;3.08;;;;;;;-143.48;89.36;77829.75;5056316;28;20100;-32
2022/11/18 01:02:04;;;;;;;8.80;2.88;;;;;;;-143.48;89.46;77841.63;5056618;28;20024;-33
2022/11/18 01:04:29;;;;;;;8.65;3.03;;;;;;;-143.48;89.34;77833.69;5056737;28;20033;-32
2022/11/18 01:06:55;;;;;;;9.13;2.90;;;;;;;-143.48;89.86;77833.69;5056336;28;20029;-33
2022/11/18 01:09:20;;;;;;;6.38;3.05;;;;;;;-143.48;89.47;77837.66;5056542;28;20075;-32
2022/11/18 01:14:29;;;;;;;5.80;2.90;;;;;;;-143.48;89.42;77855.50;5056856;28;20040;-33
2022/11/18 01:16:55;;;;;;;7.28;2.85;;;;;;;-143.48;90.26;77853.53;5056920;28;20029;-32
2022/11/18 01:19:21;;;;;;;8.55;2.95;;;;;;;-143.48;90.10;77857.50;5056342;28;20025;-32
2022/11/18 01:21:46;;;;;;;14.82;3.22;;;;;;;-143.48;89.93;77861.47;5056565;28;20017;-33
2022/11/18 01:24:12;;;;;;;6.38;2.88;;;;;;;-143.48;90.07;77871.38;5056248;28;20105;-33
2022/11/18 01:26:37;;;;;;;8.70;3.00;;;;;;;-143.48;90.63;77861.47;5055934;28;20037;-32
2022/11/18 01:29:02;;;;;;;6.70;3.05;;;;;;;-143.48;90.52;77857.50;5054655;28;20029;-33
2022/11/18 01:31:27;;;;;;;7.85;2.80;;;;;;;-143.48;90.00;77869.41;5055889;28;20468;-32
2022/11/18 01:33:53;;;;;;;10.45;3.28;;;;;;;-143.48;89.92;77881.28;5056583;28;20021;-32
2022/11/18 01:36:24;;;;;;;6.50;3.05;;;;;;;-143.48;90.06;77877.31;5055963;28;20116;-32
2022/11/18 01:38:51;;;;;;;7.75;3.10;;;;;;;-143.48;90.58;77889.22;5056025;28;20504;-32
2022/11/18 01:41:18;;;;;;;5.78;2.95;;;;;;;-143.48;90.98;77897.16;5056039;28;20024;-32
2022/11/18 01:43:59;;;;;;;8.95;3.10;;;;;;;-143.48;90.84;77893.19;5055910;28;20430;-32
2022/11/18 01:46:27;;;;;;;6.60;3.08;;;;;;;-143.48;90.56;77887.25;5055614;28;20404;-32
2022/11/18 01:49:16;;;;;;;6.93;3.45;;;;;;;-143.48;90.87;77889.22;5055810;28;20021;-32
2022/11/18 01:51:50;;;;;;;6.85;3.00;;;;;;;-143.48;90.79;77891.22;5055944;28;20025;-32
2022/11/18 01:54:25;;;;;;;9.50;3.20;;;;;;;-143.48;91.21;77903.09;5055847;28;20057;-32
2022/11/18 01:56:54;;;;;;;9.25;3.25;;;;;;;-143.48;91.20;77903.09;5055275;28;20056;-32
2022/11/18 01:59:24;;;;;;;8.88;3.42;;;;;;;-143.48;91.13;77905.09;5055537;28;20064;-32
2022/11/18 02:01:49;;;;;;;8.80;3.03;;;;;;;-143.48;90.97;77901.13;5055178;28;20045;-32
2022/11/18 02:04:16;;;;;;;10.10;2.95;;;;;;;-143.48;91.31;77909.06;5055518;28;20035;-32
2022/11/18 02:06:44;;;;;;;7.88;3.22;;;;;;;-143.48;91.51;77917.00;5055481;28;20020;-32
2022/11/18 02:09:10;;;;;;;8.68;3.30;;;;;;;-143.48;91.10;77907.06;5055378;28;20566;-33
2022/11/18 02:11:52;;;;;;;8.18;3.50;;;;;;;-143.48;90.79;77915.00;5055090;28;20024;-32
2022/11/18 02:14:21;;;;;;;7.30;3.47;;;;;;;-143.48;91.61;77920.94;5055368;28;20025;-32
2022/11/18 02:17:00;;;;;;;7.40;3.25;;;;;;;-143.48;91.77;77930.88;5054964;28;20103;-33
2022/11/18 02:19:46;;;;;;;7.80;3.70;;;;;;;-143.48;91.78;77930.88;5054853;28;20028;-32
2022/11/18 02:22:17;;;;;;;11.48;3.22;;;;;;;-143.48;91.86;77911.03;5055176;28;20368;-32
2022/11/18 02:25:22;;;;;;;6.70;3.40;;;;;;;-143.48;91.10;77924.91;5055121;28;20464;-33
2022/11/18 02:28:13;;;;;;;9.75;3.47;;;;;;;-143.48;91.72;77932.84;5037293;28;20226;-32
2022/11/18 02:30:56;;;;;;;5.68;3.00;;;;;;;-143.48;92.02;77934.84;5053486;28;20492;-32
2022/11/18 02:33:27;;;;;;;15.05;3.33;;;;;;;-143.48;91.75;77936.81;5055014;28;20028;-32
2022/11/18 02:35:59;;;;;;;9.48;3.40;;;;;;;-143.48;91.59;77928.88;5054572;28;20108;-33
2022/11/18 02:38:30;;;;;;;9.27;3.55;;;;;;;-143.48;91.41;77926.91;5055151;28;20032;-32
2022/11/18 02:41:00;;;;;;;10.00;3.20;;;;;;;-143.48;91.92;77944.75;5054767;28;20020;-32
2022/11/18 02:43:37;;;;;;;10.07;3.35;;;;;;;-143.48;92.17;77936.81;5054822;28;20045;-35
2022/11/18 02:46:08;;;;;;;10.35;3.42;;;;;;;-143.48;91.72;77930.88;5054649;28;20059;-33
2022/11/18 02:48:41;;;;;;;6.85;3.42;;;;;;;-143.48;91.81;77946.72;5054655;28;20021;-36
2022/11/18 02:51:10;;;;;;;12.15;4.03;;;;;;;-143.48;92.17;77950.69;5054521;28;20440;-32
2022/11/18 02:53:37;;;;;;;7.72;3.55;;;;;;;-143.48;91.93;77948.72;5054286;28;20108;-32
2022/11/18 02:56:04;;;;;;;8.00;3.50;;;;;;;-143.48;92.14;77956.66;5054218;28;20051;-32
2022/11/18 02:58:29;;;;;;;8.60;3.58;;;;;;;-143.48;92.18;77950.69;5054789;28;20112;-33
2022/11/18 03:00:57;;;;;;;9.27;3.90;;;;;;;-143.48;92.13;77956.66;5054163;28;20124;-33
2022/11/18 03:03:25;;;;;;;10.55;4.88;;;;;;;-143.48;92.37;77964.56;5053867;28;20032;-32
2022/11/18 03:06:05;;;;;;;9.70;3.55;;;;;;;-143.48;92.76;77970.53;5054199;28;20041;-32
2022/11/18 03:08:38;;;;;;;10.57;3.90;;;;;;;-143.48;92.88;77972.50;5053425;28;20050;-33
2022/11/18 03:11:18;;;;;;;8.75;3.90;;;;;;;-143.48;93.10;77972.50;5052174;28;20029;-33
2022/11/18 03:14:05;;;;;;;11.48;3.92;;;;;;;-143.48;93.04;77976.47;5051744;28;20483;-32
2022/11/18 03:16:37;;;;;;;6.78;3.70;;;;;;;-143.48;92.90;77980.44;5051695;28;20061;-32
2022/11/18 03:19:17;;;;;;;8.82;4.00;;;;;;;-143.48;92.53;77976.47;5051760;28;20028;-33
2022/11/18 03:21:46;;;;;;;9.10;4.40;;;;;;;-143.48;92.38;77974.50;5051697;28;20512;-33
2022/11/18 03:24:25;;;;;;;12.80;4.30;;;;;;;-143.48;92.45;77976.47;5052366;28;20472;-32
2022/11/18 03:26:57;;;;;;;9.73;3.92;;;;;;;-143.48;92.22;77976.47;5054185;28;20029;-32
2022/11/18 03:29:29;;;;;;;10.07;4.10;;;;;;;-143.48;92.50;77988.38;5054337;28;20079;-35
2022/11/18 03:32:01;;;;;;;8.65;4.15;;;;;;;-143.48;92.63;77986.41;5053627;28;20079;-32
2022/11/18 03:34:35;;;;;;;8.30;3.97;;;;;;;-143.48;92.73;77986.41;5053693;28;20435;-32
2022/11/18 03:37:04;;;;;;;10.40;3.83;;;;;;;-143.48;92.67;77986.41;5053760;28;20036;-32
2022/11/18 03:39:34;;;;;;;7.22;3.97;;;;;;;-143.48;92.96;77996.31;5053528;28;20029;-32
2022/11/18 03:42:19;;;;;;;11.50;3.97;;;;;;;-143.48;93.00;78008.22;5053526;28;20075;-33
2022/11/18 03:44:53;;;;;;;9.65;4.03;;;;;;;-143.48;92.91;78004.25;5042714;28;20041;-32
2022/11/18 03:47:26;;;;;;;11.20;4.03;;;;;;;-143.48;93.07;78004.25;5053374;28;20035;-32
2022/11/18 03:50:17;;;;;;;7.80;4.35;;;;;;;-143.48;93.21;78016.13;5053445;28;20078;-33
2022/11/18 03:52:44;;;;;;;6.78;4.05;;;;;;;-143.48;93.25;78020.09;5053617;28;20024;-33
2022/11/18 03:55:40;;;;;;;10.98;4.18;;;;;;;-143.48;93.09;78024.06;5053845;28;20025;-39
2022/11/18 03:58:16;;;;;;;11.98;4.47;;;;;;;-143.48;93.37;78016.13;5040981;28;20154;-32
2022/11/18 04:00:46;;;;;;;8.90;4.30;;;;;;;-143.48;92.77;78020.09;5053261;28;20060;-32
2022/11/18 04:03:12;;;;;;;14.23;4.30;;;;;;;-143.48;93.35;78026.06;5053582;28;20025;-33
2022/11/18 04:05:41;;;;;;;13.82;4.78;;;;;;;-143.48;93.84;78037.94;5053328;28;20028;-33
2022/11/18 04:08:11;;;;;;;12.60;4.15;;;;;;;-143.48;93.75;78028.03;5053263;28;20056;-32
2022/11/18 04:10:54;;;;;;;10.30;4.28;;;;;;;-143.48;93.26;78037.94;5053471;28;20029;-32
2022/11/18 04:13:33;;;;;;;13.17;4.43;;;;;;;-143.48;93.48;78041.91;5053229;28;20029;-32
2022/11/18 04:15:59;;;;;;;10.60;4.30;;;;;;;-143.48;93.93;78030.03;5053376;28;20533;-32
2022/11/18 04:18:24;;;;;;;10.90;4.65;;;;;;;-143.48;93.50;78039.94;5055076;28;20060;-32
2022/11/18 04:20:49;;;;;;;7.65;4.13;;;;;;;-143.48;93.36;78035.97;5057097;28;20064;-32
2022/11/18 04:23:14;;;;;;;8.52;4.38;;;;;;;-143.48;93.10;78047.88;5057175;28;20446;-32
2022/11/18 04:25:40;;;;;;;12.38;4.35;;;;;;;-143.48;93.40;78047.88;5057122;28;20016;-32
2022/11/18 04:28:05;;;;;;;12.02;4.70;;;;;;;-143.48;93.58;78051.84;5057370;28;20017;-32
2022/11/18 04:30:32;;;;;;;12.55;4.78;;;;;;;-143.48;93.82;78061.75;5057186;28;20025;-32
2022/11/18 04:32:57;;;;;;;12.73;4.90;;;;;;;-143.48;93.88;78055.81;5055726;28;20025;-32
2022/11/18 04:35:23;;;;;;;12.77;4.53;;;;;;;-143.48;93.53;78067.69;5056890;28;20487;-32
2022/11/18 04:37:48;;;;;;;10.85;4.55;;;;;;;-143.48;94.00;78075.63;5056433;28;20523;-32
2022/11/18 04:40:13;;;;;;;10.35;4.63;;;;;;;-143.48;93.79;78067.69;5057160;28;20029;-32
2022/11/18 04:42:39;;;;;;;10.00;4.38;;;;;;;-143.48;93.93;78075.63;5057003;28;20024;-32
2022/11/18 04:45:05;;;;;;;10.13;4.72;;;;;;;-143.48;94.37;78081.56;5057011;28;20357;-32
2022/11/18 04:47:30;;;;;;;11.23;5.10;;;;;;;-143.48;94.51;78083.56;5056681;28;20033;-32
2022/11/18 04:49:56;;;;;;;10.13;4.80;;;;;;;-143.48;93.96;78079.59;5056966;28;20345;-32
2022/11/18 04:52:21;;;;;;;13.98;5.05;;;;;;;-143.48;94.04;78081.56;5056743;28;20029;-33
2022/11/18 04:54:46;;;;;;;11.25;4.65;;;;;;;-143.48;94.23;78087.53;5056445;28;20534;-32
2022/11/18 04:57:12;;;;;;;10.82;4.65;;;;;;;-143.48;94.36;78077.63;5056823;28;20428;-33
2022/11/18 04:59:37;;;;;;;10.68;4.47;;;;;;;-143.48;94.13;78087.53;5056309;28;20021;-32
2022/11/18 05:02:03;;;;;;;13.68;4.63;;;;;;;-143.48;93.93;78081.56;5056931;28;20024;-32
2022/11/18 05:04:31;;;;;;;11.02;4.60;;;;;;;-143.48;94.27;78093.47;5056307;28;20104;-32
2022/11/18 05:06:57;;;;;;;13.68;5.07;;;;;;;-143.48;94.65;78103.41;5056549;28;20025;-33
2022/11/18 05:09:23;;;;;;;9.73;4.70;;;;;;;-143.48;94.79;78109.34;5055049;28;20426;-32
2022/11/18 05:14:32;;;;;;;8.85;4.50;;;;;;;-143.48;94.41;78115.28;5056401;28;20040;-32
2022/11/18 05:17:00;;;;;;;13.15;4.78;;;;;;;-143.48;94.79;78107.34;5057152;28;20464;-32
2022/11/18 05:19:25;;;;;;;9.98;4.55;;;;;;;-143.48;94.62;78099.44;5055976;28;20391;-32
2022/11/18 05:21:51;;;;;;;9.27;4.78;;;;;;;-143.48;94.01;78095.47;5056127;28;20024;-32
2022/11/18 05:24:16;;;;;;;9.40;4.50;;;;;;;-143.48;93.93;78103.41;5056618;28;20028;-32
2022/11/18 05:26:42;;;;;;;8.60;4.72;;;;;;;-143.48;94.19;78107.34;5056210;28;20017;-32
2022/11/18 05:29:07;;;;;;;8.50;4.38;;;;;;;-143.48;94.36;78099.44;5055855;28;20071;-32
2022/11/18 05:31:32;;;;;;;6.55;4.07;;;;;;;-143.48;93.92;78103.41;5055492;28;20388;-32
2022/11/18 05:33:58;;;;;;;11.40;4.70;;;;;;;-143.48;93.82;78109.34;5055823;28;20091;-33
2022/11/18 05:36:23;;;;;;;9.68;4.47;;;;;;;-143.48;94.33;78101.41;5055946;28;20021;-32
2022/11/18 05:38:49;;;;;;;11.70;4.75;;;;;;;-143.48;94.13;78095.47;5055692;28;20025;-32
2022/11/18 05:44:00;;;;;;;11.43;4.50;;;;;;;-143.48;94.05;78107.34;5056446;28;20039;-33
2022/11/18 05:46:25;;;;;;;11.20;4.80;;;;;;;-143.48;93.93;78099.44;5055899;28;20029;-32
2022/11/18 05:48:51;;;;;;;11.23;4.63;;;;;;;-143.48;94.10;78107.34;5055541;28;20025;-33
2022/11/18 05:51:16;;;;;;;7.82;4.65;;;;;;;-143.48;93.93;78113.31;5055825;28;20028;-32
2022/11/18 05:53:42;;;;;;;11.77;4.65;;;;;;;-143.48;94.21;78103.41;5055519;28;20052;-33
2022/11/18 05:56:26;;;;;;;9.85;4.20;;;;;;;-143.48;94.07;78117.28;5055906;28;20033;-32
2022/11/18 05:58:52;;;;;;;8.45;4.22;;;;;;;-143.48;93.97;78093.47;5055467;28;20422;-32
2022/11/18 06:01:28;;;;;;;9.20;4.20;;;;;;;-143.48;93.69;78097.44;5055229;28;20044;-32
2022/11/18 06:03:54;;;;;;;8.35;4.30;;;;;;;-143.48;94.00;78103.41;5055805;28;20025;-33
2022/11/18 06:06:22;;;;;;;9.60;4.00;;;;;;;-143.48;93.87;78105.38;5055979;28;20513;-32
2022/11/18 06:08:55;;;;;;;14.23;4.38;;;;;;;-143.48;93.46;78099.44;5055387;28;20357;-32
2022/11/18 06:11:21;;;;;;;12.20;4.40;;;;;;;-143.48;93.63;78097.44;5055642;28;20090;-32
2022/11/18 06:13:53;;;;;;;7.55;4.35;;;;;;;-143.48;93.56;78099.44;5055073;28;20464;-32
2022/11/18 06:16:22;;;;;;;9.43;4.43;;;;;;;-143.48;93.32;78103.41;5054927;28;20032;-32
2022/11/18 06:18:47;;;;;;;10.07;4.40;;;;;;;-143.48;93.88;78103.41;5053748;28;20030;-32
2022/11/18 06:21:13;;;;;;;6.65;3.78;;;;;;;-143.48;93.35;78097.44;5055452;28;20025;-33
2022/11/18 06:23:41;;;;;;;9.13;4.25;;;;;;;-143.48;93.34;78107.34;5055228;28;20532;-33
2022/11/18 06:26:08;;;;;;;7.18;4.03;;;;;;;-143.48;93.35;78103.41;5055191;28;20313;-32
2022/11/18 06:28:34;;;;;;;9.23;4.10;;;;;;;-143.48;93.33;78107.34;5055564;28;20112;-32
2022/11/18 06:30:59;;;;;;;8.38;4.07;;;;;;;-143.48;93.62;78119.25;5055001;28;20024;-33
2022/11/18 06:33:24;;;;;;;8.43;4.10;;;;;;;-143.48;94.07;78119.25;5055011;28;20095;-32
2022/11/18 06:35:50;;;;;;;9.13;3.97;;;;;;;-143.48;93.40;78121.25;5053787;28;20027;-32
2022/11/18 06:38:15;;;;;;;8.40;4.10;;;;;;;-143.48;93.22;78127.19;5052547;28;20594;-35
2022/11/18 06:40:43;;;;;;;10.18;4.32;;;;;;;-143.48;93.04;78123.22;5050994;28;20024;-33
2022/11/18 06:48:42;;;;;;;8.55;3.88;;;;;;;-143.48;92.92;78123.22;5053508;28;20511;-34
2022/11/18 06:51:08;;;;;;;7.65;3.92;;;;;;;-143.48;92.87;78135.13;5052299;28;20033;-34
2022/11/18 06:53:34;;;;;;;11.88;4.72;;;;;;;-143.48;93.18;78143.06;5053071;28;20487;-34
2022/11/18 06:56:04;;;;;;;9.32;4.70;;;;;;;-143.48;93.09;78147.03;5052842;28;20456;-31
2022/11/18 06:58:29;;;;;;;10.13;4.45;;;;;;;-143.48;93.35;78145.03;5052000;28;20032;-32
2022/11/18 07:00:54;;;;;;;10.50;4.20;;;;;;;-143.48;92.96;78141.06;5052245;28;20041;-32
2022/11/18 07:03:19;;;;;;;12.30;3.75;;;;;;;-143.48;92.99;78147.03;5052303;28;20028;-32
2022/11/18 07:05:45;;;;;;;8.93;4.47;;;;;;;-143.48;93.26;78147.03;5052160;28;20021;-32
2022/11/18 07:08:10;;;;;;;12.68;4.00;;;;;;;-143.48;92.56;78147.03;5052466;28;20029;-32
2022/11/18 07:10:35;;;;;;;11.32;4.30;;;;;;;-143.48;92.68;78139.09;5069348;22;20025;-66
2022/11/18 07:13:00;;;;;;;10.55;4.20;;;;;;;-143.48;93.07;78154.94;5054721;28;20132;-67
2022/11/18 07:15:26;;;;;;;8.20;3.78;;;;;;;-143.48;92.33;78152.97;5053436;28;20364;-64
2022/11/18 07:17:51;;;;;;;10.50;4.15;;;;;;;-143.48;92.71;78158.91;5054296;28;20027;-64
2022/11/18 07:20:17;;;;;;;8.77;3.95;;;;;;;-143.48;92.68;78156.94;5069074;28;20086;-64
2022/11/18 07:22:42;;;;;;;10.35;4.13;;;;;;;-143.48;92.31;78152.97;5055902;28;20021;-65
2022/11/18 07:25:08;;;;;;;8.18;3.80;;;;;;;-143.48;92.19;78151.00;5055251;28;20488;-66
2022/11/18 07:27:33;;;;;;;7.53;3.58;;;;;;;-143.48;92.08;78152.97;5058385;28;20028;-66
2022/11/18 07:29:58;;;;;;;12.93;4.22;;;;;;;-143.48;91.02;78139.09;5054183;28;20377;-66
2022/11/18 07:32:24;;;;;;;13.05;4.05;;;;;;;-143.48;90.80;78115.28;5053952;28;20028;-65
2022/11/18 07:34:49;;;;;;;6.05;3.78;;;;;;;-143.48;89.96;78109.34;5053707;28;20476;-66
2022/11/18 07:37:14;;;;;;;10.18;4.00;;;;;;;-143.48;89.86;78129.16;5069560;28;20028;-66
2022/11/18 07:39:39;;;;;;;10.70;4.07;;;;;;;-143.48;90.44;78151.00;5053813;28;20025;-66
2022/11/18 07:42:05;;;;;;;8.82;3.95;;;;;;;-143.48;90.22;78115.28;5053866;28;20449;-65
2022/11/18 07:44:30;;;;;;;13.95;4.10;;;;;;;-143.48;89.83;78125.22;5054038;28;20166;-66
2022/11/18 07:46:55;;;;;;;12.88;4.20;;;;;;;-143.48;89.71;78129.16;5054366;28;20032;-65
2022/11/18 07:49:21;;;;;;;8.77;3.80;;;;;;;-143.48;89.13;78119.25;5054022;28;20020;-65
2022/11/18 07:51:46;;;;;;;5.85;3.58;;;;;;;-143.48;88.79;78123.22;5054558;28;20029;-65
2022/11/18 07:54:13;;;;;;;9.57;3.70;;;;;;;-143.48;89.08;78119.25;5052192;28;20396;-65
2022/11/18 07:56:38;;;;;;;10.48;3.90;;;;;;;-143.48;89.03;78145.03;5052619;28;20033;-66
2022/11/18 07:59:04;;;;;;;8.07;3.65;;;;;;;-143.48;89.44;78141.06;5055272;28;20024;-65
2022/11/18 08:01:30;;;;;;;11.10;4.78;;;;;;;-143.48;89.33;78139.09;5055505;28;20044;-66
2022/11/18 08:03:57;;;;;;;8.82;3.78;;;;;;;-143.48;88.78;78131.16;5055549;28;20029;-65
2022/11/18 08:06:22;;;;;;;11.90;4.00;;;;;;;-143.48;88.95;78145.03;5055251;28;20021;-65
2022/11/18 08:08:48;;;;;;;6.82;3.95;;;;;;;-143.48;88.64;78135.13;5055792;28;20040;-64
2022/11/18 08:11:16;;;;;;;10.43;3.65;;;;;;;-143.48;88.62;78145.03;5053242;28;20045;-65
2022/11/18 08:13:42;;;;;;;8.50;3.80;;;;;;;-143.48;88.36;78139.09;5053701;28;20020;-67
2022/11/18 08:16:13;;;;;;;8.13;4.22;;;;;;;-143.48;88.51;78145.03;5052197;28;20032;-64
2022/11/18 08:18:38;;;;;;;8.90;4.03;;;;;;;-143.48;88.53;78145.03;5052520;28;20088;-64
2022/11/18 08:21:04;;;;;;;8.43;3.90;;;;;;;-143.48;87.91;78149.00;5053117;28;20452;-65
2022/11/18 08:23:30;;;;;;;9.05;3.67;;;;;;;-143.48;88.58;78151.00;5054037;28;20028;-67
2022/11/18 08:26:08;;;;;;;10.85;3.65;;;;;;;-143.48;88.92;78164.88;5054240;28;20133;-66
2022/11/18 08:28:33;;;;;;;6.85;3.53;;;;;;;-143.48;87.80;78152.97;5053643;28;20044;-65
2022/11/18 08:30:59;;;;;;;17.00;4.18;;;;;;;-143.48;88.27;78152.97;5052292;28;20021;-63
2022/11/18 08:33:24;;;;;;;10.77;3.60;;;;;;;-143.48;87.91;78149.00;5055129;28;20029;-66
2022/11/18 08:35:50;;;;;;;7.68;4.10;;;;;;;-143.48;88.55;78154.94;5051250;28;20048;-67
2022/11/18 08:38:16;;;;;;;11.48;3.63;;;;;;;-143.48;87.89;78147.03;5052424;28;20047;-66
2022/11/18 08:40:45;;;;;;;14.25;4.00;;;;;;;-143.48;87.66;78131.16;5052650;28;20150;-66
2022/11/18 08:43:10;;;;;;;8.25;3.50;;;;;;;-143.48;86.83;78129.16;5052778;28;20033;-66
2022/11/18 08:45:38;;;;;;;9.05;4.25;;;;;;;-143.48;86.50;78121.25;5052604;28;20029;-65
2022/11/18 08:48:03;;;;;;;11.73;4.00;;;;;;;-143.48;86.32;78101.41;5053641;28;20112;-65
2022/11/18 08:50:28;;;;;;;9.65;4.25;;;;;;;-143.48;85.43;78093.47;5052952;28;20114;-65
2022/11/18 08:52:54;;;;;;;10.43;3.47;;;;;;;-143.48;84.56;78087.53;5053261;28;20020;-64
2022/11/18 08:55:19;;;;;;;12.07;4.47;;;;;;;-143.48;84.13;78065.72;5053122;28;20025;-65
2022/11/18 08:57:44;;;;;;;11.98;3.95;;;;;;;-143.48;83.91;78049.84;5053180;28;20029;-65
2022/11/18 09:00:10;;;;;;;8.63;3.63;;;;;;;-143.48;83.43;78055.81;5053268;28;20025;-77
2022/11/18 09:02:36;;;;;;;9.27;3.97;;;;;;;-143.48;82.76;78045.88;5053423;28;20031;-77
2022/11/18 09:05:01;;;;;;;10.32;3.90;;;;;;;-143.48;82.13;78035.97;5055384;28;20528;-78
2022/11/18 09:07:27;;;;;;;8.85;4.10;;;;;;;-143.48;82.65;78077.63;5056329;28;20031;-78
2022/11/18 09:09:52;;;;;;;11.32;4.50;;;;;;;-143.48;83.12;78099.44;5057458;28;20416;-77
2022/11/18 09:12:17;;;;;;;11.18;5.15;;;;;;;-143.48;83.78;78095.47;5057417;28;20127;-76
2022/11/18 09:14:43;;;;;;;8.38;5.10;;;;;;;-143.48;83.11;78087.53;5059190;28;20032;-77
2022/11/18 09:17:09;;;;;;;8.85;4.97;;;;;;;-143.48;82.87;78101.41;5057842;28;20047;-77
2022/11/18 09:19:34;;;;;;;11.30;5.18;;;;;;;-143.48;83.09;78069.69;5056881;28;20020;-74
2022/11/18 09:21:59;;;;;;;11.52;4.78;;;;;;;-143.48;82.96;78113.31;5058967;28;20032;-73
2022/11/18 09:24:24;;;;;;;11.82;5.20;;;;;;;-143.48;83.69;78127.19;5057751;28;20025;-74
2022/11/18 09:26:52;;;;;;;10.05;4.97;;;;;;;-143.48;83.62;78091.50;5058552;28;20021;-74
2022/11/18 09:29:18;;;;;;;8.23;4.60;;;;;;;-143.48;83.07;78095.47;5058632;28;20025;-73
2022/11/18 09:31:44;;;;;;;14.35;5.00;;;;;;;-143.48;80.78;78032.00;5058270;28;20024;-74
2022/11/18 09:34:09;;;;;;;8.70;4.63;;;;;;;-143.48;78.65;77982.44;5062159;28;20020;-74
2022/11/18 09:36:34;;;;;;;10.77;4.35;;;;;;;-143.48;76.25;77926.91;5067988;28;20028;-74
2022/11/18 09:39:00;;;;;;;10.20;4.18;;;;;;;-143.48;67.57;77730.59;5063660;28;20025;-74
2022/11/18 09:41:43;;;;;;;8.52;3.75;;;;;;;-143.48;61.95;77510.50;5063875;28;20080;-75
2022/11/18 09:44:23;;;;;;;9.30;3.58;;;;;;;-143.48;59.47;77581.88;5060967;28;20071;-74
2022/11/18 09:47:01;;;;;;;7.60;3.40;;;;;;;-143.48;73.94;77982.44;5058608;28;20387;-77
2022/11/18 09:49:47;;;;;;;7.90;3.60;;;;;;;-143.48;78.39;78063.72;5055628;28;20024;-72
2022/11/18 09:52:16;;;;;;;7.35;3.53;;;;;;;-143.48;75.33;77956.66;5056051;28;20476;-74
2022/11/18 09:54:41;;;;;;;10.55;3.90;;;;;;;-143.48;74.43;77976.47;5055418;28;20457;-74
2022/11/18 09:57:16;;;;;;;12.13;4.15;;;;;;;-143.48;75.51;78012.16;5055390;28;20095;-73
2022/11/18 09:59:42;;;;;;;9.27;4.40;;;;;;;-143.48;77.17;78024.06;5055984;28;20029;-73
2022/11/18 10:02:49;;;;;;;12.02;4.25;;;;;;;-143.48;73.80;77994.31;5057262;28;20146;-75
2022/11/18 10:05:24;;;;;;;11.20;4.10;;;;;;;-143.48;76.36;77998.28;5035821;28;20068;-76
2022/11/18 10:08:04;;;;;;;9.55;3.85;;;;;;;-143.48;63.48;77609.63;5056008;28;20460;-75
2022/11/18 10:10:43;;;;;;;10.43;3.72;;;;;;;-143.48;51.34;77195.25;5055407;28;20031;-77
2022/11/18 10:13:21;;;;;;;10.05;3.88;;;;;;;-143.48;48.41;77068.34;5054298;28;20190;-76
2022/11/18 10:16:03;;;;;;;7.82;3.22;;;;;;;-143.48;46.71;77012.84;5057218;28;20132;-75
2022/11/18 10:18:51;;;;;;;8.88;3.17;;;;;;;-143.48;57.24;77560.06;5055844;28;20033;-76
2022/11/18 10:21:26;;;;;;;8.57;3.40;;;;;;;-143.48;64.96;77805.94;5055777;28;20032;-75
2022/11/18 10:24:01;;;;;;;9.00;3.40;;;;;;;-143.48;68.56;77871.38;5056143;28;20028;-75
2022/11/18 10:26:35;;;;;;;8.68;3.00;;;;;;;-143.48;70.33;77918.97;5056572;28;20017;-74
2022/11/18 10:29:02;;;;;;;12.65;3.47;;;;;;;-143.48;72.29;77970.53;5056254;28;20129;-74
2022/11/18 10:31:27;;;;;;;12.25;3.22;;;;;;;-143.48;73.22;78012.16;5057287;28;20380;-74
2022/11/18 10:34:00;;;;;;;26.80;4.65;;;;;;;-143.48;74.16;78012.16;5056210;28;20021;-74
2022/11/18 10:36:29;;;;;;;12.07;3.80;;;;;;;-143.48;75.34;78051.84;5055026;28;20089;-73
2022/11/18 10:39:09;;;;;;;15.10;3.97;;;;;;;-143.48;75.49;78049.84;5056034;28;20016;-75
2022/11/18 10:41:43;;;;;;;12.90;3.83;;;;;;;-143.48;74.75;78041.91;5056027;28;20029;-76
2022/11/18 10:44:28;;;;;;;15.23;4.20;;;;;;;-143.48;75.09;78028.03;5054104;28;20020;-75
2022/11/18 10:46:54;;;;;;;10.18;3.40;;;;;;;-143.48;74.22;78014.16;5055274;28;20020;-72
2022/11/18 10:49:19;;;;;;;14.00;3.75;;;;;;;-143.48;74.84;78032.00;5056736;28;20075;-74
2022/11/18 10:52:06;;;;;;;8.27;3.53;;;;;;;-143.48;76.32;78051.84;5055069;28;20104;-74
2022/11/18 10:54:32;;;;;;;7.97;3.33;;;;;;;-143.48;74.16;77992.34;5045108;28;20080;-73
2022/11/18 10:57:10;;;;;;;9.10;3.40;;;;;;;-143.48;73.73;77978.47;5054734;28;20052;-76
2022/11/18 10:59:45;;;;;;;8.40;3.40;;;;;;;-143.48;70.67;77897.16;5054205;28;20017;-72
2022/11/18 11:02:18;;;;;;;12.73;3.45;;;;;;;-143.48;65.24;77651.28;5055401;28;20445;-75
2022/11/18 11:04:48;;;;;;;10.30;3.53;;;;;;;-143.48;51.98;77312.22;5053682;28;20093;-74
2022/11/18 11:07:34;;;;;;;8.40;3.30;;;;;;;-143.48;63.27;77760.34;5053374;28;20013;-73
2022/11/18 11:10:03;;;;;;;9.48;3.40;;;;;;;-143.48;62.68;77706.78;5052499;28;20029;-73
2022/11/18 11:12:37;;;;;;;9.43;3.38;;;;;;;-143.48;68.42;77893.19;5052639;28;20102;-74
2022/11/18 11:15:29;;;;;;;10.18;3.50;;;;;;;-143.48;70.95;77948.72;5054987;28;20036;-74
2022/11/18 11:20:45;;;;;;;7.93;3.30;;;;;;;-143.48;75.41;78071.66;5054761;28;20376;-76
2022/11/18 11:23:13;;;;;;;11.35;3.40;;;;;;;-143.48;76.27;78051.84;5051867;28;20112;-75
2022/11/18 11:26:02;;;;;;;10.90;3.53;;;;;;;-143.48;75.77;78051.84;5054393;28;20102;-74
2022/11/18 11:28:43;;;;;;;10.05;3.17;;;;;;;-143.48;77.05;78057.78;5055714;28;20229;-75
2022/11/18 11:31:39;;;;;;;10.77;3.53;;;;;;;-143.48;76.62;78041.91;5054589;28;20040;-75
2022/11/18 11:34:16;;;;;;;9.20;3.88;;;;;;;-143.48;75.47;78051.84;5023187;28;20033;-73
2022/11/18 11:36:57;;;;;;;9.48;3.40;;;;;;;-143.48;78.51;78083.56;5054575;28;20032;-74
2022/11/18 11:39:48;;;;;;;11.88;3.70;;;;;;;-143.48;76.53;78018.13;5057267;28;20032;-76
2022/11/18 11:42:36;;;;;;;12.15;3.80;;;;;;;-143.48;75.95;78010.19;5055683;28;20017;-74
2022/11/18 11:45:27;;;;;;;8.90;3.60;;;;;;;-143.48;77.12;78047.88;5053473;28;20395;-72
2022/11/18 11:47:59;;;;;;;11.73;3.83;;;;;;;-143.48;77.52;78041.91;5054178;28;20012;-75